Time;durP1;ratioP1;P1;durP2;ratioP2;P2;SDS_P1;SDS_P2;PMS_P1;PMS_P2;Temp;Humidity;BMP_temperature;BMP_pressure;BME280_temperature;BME280_humidity;BME280_pressure;Samples;Min_cycle;Max_cycle;Signal;HPM_P1;HPM_P2
2023/11/26 00:01:41;;;;;;;27.40;16.20;;;3.10;99.90;;;;;;5053037;28;20029;-73
2023/11/26 00:04:08;;;;;;;31.67;16.20;;;3.00;99.90;;;;;;5052565;28;20413;-73
2023/11/26 00:06:34;;;;;;;29.08;17.02;;;3.00;99.90;;;;;;5053013;28;20158;-73
2023/11/26 00:09:00;;;;;;;24.60;16.77;;;3.00;99.90;;;;;;5052915;28;20032;-73
2023/11/26 00:11:25;;;;;;;24.80;16.67;;;2.90;99.90;;;;;;5052519;28;20108;-73
2023/11/26 00:13:52;;;;;;;26.08;17.00;;;2.90;99.90;;;;;;5052522;28;20441;-73
2023/11/26 00:16:18;;;;;;;31.60;17.23;;;2.80;99.90;;;;;;5052846;28;20036;-73
2023/11/26 00:18:43;;;;;;;29.13;17.02;;;2.60;99.90;;;;;;5052530;28;20029;-73
2023/11/26 00:21:09;;;;;;;28.50;17.13;;;2.60;99.90;;;;;;5052731;28;20082;-73
2023/11/26 00:23:34;;;;;;;26.50;17.40;;;2.40;99.90;;;;;;5052771;28;20036;-73
2023/11/26 00:26:00;;;;;;;29.75;17.08;;;2.30;99.90;;;;;;5052613;28;20405;-73
2023/11/26 00:28:25;;;;;;;37.72;18.10;;;2.20;99.90;;;;;;5052534;28;20120;-73
2023/11/26 00:30:51;;;;;;;34.25;19.67;;;2.20;99.90;;;;;;5052516;28;20036;-73
2023/11/26 00:33:18;;;;;;;29.67;18.88;;;2.20;99.90;;;;;;5052800;28;20021;-73
2023/11/26 00:35:45;;;;;;;34.15;19.85;;;2.20;99.90;;;;;;5052716;28;20028;-72
2023/11/26 00:38:11;;;;;;;29.70;19.42;;;2.20;99.90;;;;;;5052833;28;20074;-72
2023/11/26 00:40:37;;;;;;;32.60;20.48;;;2.10;99.90;;;;;;5052628;28;20407;-73
2023/11/26 00:43:02;;;;;;;28.90;18.73;;;2.00;99.90;;;;;;5052786;28;20394;-73
2023/11/26 00:45:28;;;;;;;28.27;18.10;;;1.90;99.90;;;;;;5052635;28;20033;-73
2023/11/26 00:47:53;;;;;;;34.75;19.35;;;1.70;99.90;;;;;;5052544;28;20033;-72
2023/11/26 00:50:19;;;;;;;31.65;19.05;;;1.70;99.90;;;;;;5052401;28;20044;-72
2023/11/26 00:52:45;;;;;;;30.20;17.95;;;1.70;99.90;;;;;;5052637;28;20162;-73
2023/11/26 00:55:11;;;;;;;37.78;20.13;;;1.60;99.90;;;;;;5052457;28;20024;-73
2023/11/26 00:57:37;;;;;;;34.25;19.75;;;1.40;99.90;;;;;;5052392;28;20021;-73
2023/11/26 01:00:06;;;;;;;35.30;21.13;;;1.50;99.90;;;;;;5052437;28;20128;-72
2023/11/26 01:02:33;;;;;;;37.90;22.05;;;1.70;99.90;;;;;;5052521;28;20029;-72
2023/11/26 01:04:58;;;;;;;38.33;22.17;;;1.80;99.90;;;;;;5052332;28;20620;-72
2023/11/26 01:07:24;;;;;;;45.17;22.45;;;1.90;99.90;;;;;;5052342;28;20123;-72
2023/11/26 01:09:49;;;;;;;38.53;22.73;;;1.80;99.90;;;;;;5052198;28;20051;-72
2023/11/26 01:12:15;;;;;;;41.00;22.90;;;1.80;99.90;;;;;;5052329;28;20087;-73
2023/11/26 01:14:41;;;;;;;52.67;27.02;;;1.90;99.90;;;;;;5052329;28;20028;-72
2023/11/26 01:17:06;;;;;;;55.63;29.23;;;2.00;99.90;;;;;;5052205;28;20029;-72
2023/11/26 01:19:32;;;;;;;46.60;26.35;;;2.10;99.90;;;;;;5052381;28;20025;-73
2023/11/26 01:21:57;;;;;;;45.92;25.17;;;2.20;99.90;;;;;;5052283;28;20039;-73
2023/11/26 01:24:23;;;;;;;51.10;26.60;;;2.20;99.90;;;;;;5052295;28;20104;-73
2023/11/26 01:26:48;;;;;;;50.72;26.13;;;2.20;99.90;;;;;;5052301;28;20029;-73
2023/11/26 01:29:14;;;;;;;48.75;27.15;;;2.30;99.90;;;;;;5051957;28;20139;-73
2023/11/26 01:31:39;;;;;;;40.70;25.00;;;2.30;99.90;;;;;;5052163;28;20037;-73
2023/11/26 01:34:05;;;;;;;39.80;24.60;;;2.30;99.90;;;;;;5052187;28;20029;-73
2023/11/26 01:36:30;;;;;;;42.95;24.80;;;2.40;99.90;;;;;;5052181;28;20074;-73
2023/11/26 01:38:56;;;;;;;41.50;22.85;;;2.40;99.90;;;;;;5055671;28;20081;-72
2023/11/26 01:41:21;;;;;;;41.10;23.70;;;2.40;99.90;;;;;;5055890;28;20052;-72
2023/11/26 01:43:47;;;;;;;42.85;22.13;;;2.40;99.90;;;;;;5055683;28;20025;-72
2023/11/26 01:46:13;;;;;;;43.30;23.40;;;2.30;99.90;;;;;;5055571;28;20433;-72
2023/11/26 01:48:40;;;;;;;37.40;22.08;;;2.30;99.90;;;;;;5055016;28;20021;-72
2023/11/26 01:51:10;;;;;;;31.25;20.00;;;2.20;99.90;;;;;;5055112;28;20058;-72
2023/11/26 01:53:40;;;;;;;33.38;19.88;;;2.30;99.90;;;;;;5055438;28;20161;-73
2023/11/26 01:56:07;;;;;;;26.92;18.15;;;2.20;99.90;;;;;;5054992;28;20021;-73
2023/11/26 01:58:34;;;;;;;34.85;19.67;;;2.20;99.90;;;;;;5055403;28;20025;-73
2023/11/26 02:01:00;;;;;;;26.63;17.63;;;2.10;99.90;;;;;;5055302;28;20029;-73
2023/11/26 02:03:25;;;;;;;27.00;17.77;;;2.00;99.90;;;;;;5055304;28;20112;-72
2023/11/26 02:05:51;;;;;;;32.53;18.92;;;2.00;99.90;;;;;;5055279;28;20483;-73
2023/11/26 02:08:18;;;;;;;29.85;18.25;;;1.90;99.90;;;;;;5055182;28;20031;-73
2023/11/26 02:10:44;;;;;;;37.60;18.80;;;1.80;99.90;;;;;;5055037;28;20514;-72
2023/11/26 02:13:10;;;;;;;37.90;20.48;;;1.80;99.90;;;;;;5054673;28;20025;-72
2023/11/26 02:15:36;;;;;;;35.63;20.75;;;1.80;99.90;;;;;;5055007;28;20383;-73
2023/11/26 02:18:02;;;;;;;33.40;18.90;;;1.80;99.90;;;;;;5054578;28;20032;-72
2023/11/26 02:20:28;;;;;;;25.58;17.40;;;1.80;99.90;;;;;;5055003;28;20029;-72
2023/11/26 02:22:54;;;;;;;35.38;20.15;;;1.90;99.90;;;;;;5054523;28;20025;-72
2023/11/26 02:25:23;;;;;;;27.88;17.85;;;1.90;99.90;;;;;;5054910;28;20033;-72
2023/11/26 02:27:49;;;;;;;39.50;21.52;;;1.90;99.90;;;;;;5054353;28;20021;-72
2023/11/26 02:30:20;;;;;;;29.15;19.77;;;1.90;99.90;;;;;;5054382;28;20048;-73
2023/11/26 02:32:46;;;;;;;33.65;19.55;;;1.90;99.90;;;;;;5054810;28;20505;-73
2023/11/26 02:35:11;;;;;;;38.72;20.90;;;1.90;99.90;;;;;;5054553;28;20032;-72
2023/11/26 02:37:37;;;;;;;40.95;23.02;;;2.00;99.90;;;;;;5054143;28;20025;-73
2023/11/26 02:40:05;;;;;;;37.47;21.00;;;2.00;99.90;;;;;;5054165;28;20029;-73
2023/11/26 02:42:32;;;;;;;39.40;21.75;;;2.10;99.90;;;;;;5054545;28;20079;-73
2023/11/26 02:44:59;;;;;;;39.42;23.52;;;2.10;99.90;;;;;;5054018;28;20052;-73
2023/11/26 02:47:26;;;;;;;38.60;21.92;;;2.10;99.90;;;;;;5054304;28;20091;-73
2023/11/26 02:49:52;;;;;;;37.15;22.40;;;2.10;99.90;;;;;;5054070;28;20025;-73
2023/11/26 02:52:18;;;;;;;31.00;19.83;;;2.20;99.90;;;;;;5054014;28;20079;-73
2023/11/26 02:54:44;;;;;;;34.30;20.67;;;2.10;99.90;;;;;;5054468;28;20033;-73
2023/11/26 02:57:10;;;;;;;45.03;23.73;;;2.10;99.90;;;;;;5054323;28;20074;-73
2023/11/26 02:59:36;;;;;;;45.65;22.13;;;2.20;99.90;;;;;;5054274;28;20474;-73
2023/11/26 03:02:02;;;;;;;37.33;22.33;;;2.20;99.90;;;;;;5054205;28;20510;-73
2023/11/26 03:04:27;;;;;;;35.83;22.92;;;2.20;99.90;;;;;;5053786;28;20114;-73
2023/11/26 03:06:53;;;;;;;35.38;20.83;;;2.20;99.90;;;;;;5053694;28;20033;-73
2023/11/26 03:09:37;;;;;;;33.70;20.60;;;2.20;99.90;;;;;;5054075;28;20120;-73
2023/11/26 03:14:51;;;;;;;46.67;24.95;;;2.20;99.90;;;;;;5053494;28;20020;-73
2023/11/26 03:17:16;;;;;;;44.58;25.00;;;2.30;99.90;;;;;;5053916;28;20025;-73
2023/11/26 03:19:45;;;;;;;45.08;25.88;;;2.30;99.90;;;;;;5053790;28;20180;-73
2023/11/26 03:22:11;;;;;;;40.90;24.20;;;2.30;99.90;;;;;;5053667;28;20543;-73
2023/11/26 03:24:36;;;;;;;39.63;22.98;;;2.30;99.90;;;;;;5053608;28;20028;-73
2023/11/26 03:27:03;;;;;;;49.33;25.52;;;2.30;99.90;;;;;;5053221;28;20021;-73
2023/11/26 03:29:29;;;;;;;40.67;23.98;;;2.30;99.90;;;;;;5052888;28;20132;-73
2023/11/26 03:31:55;;;;;;;43.58;24.60;;;2.20;99.90;;;;;;5053523;28;20425;-73
2023/11/26 03:34:20;;;;;;;47.97;26.40;;;2.20;99.90;;;;;;5053507;28;20028;-73
2023/11/26 03:36:46;;;;;;;45.03;24.17;;;2.10;99.90;;;;;;5053455;28;20339;-73
2023/11/26 03:39:12;;;;;;;52.97;25.67;;;2.10;99.90;;;;;;5053373;28;20029;-73
2023/11/26 03:41:38;;;;;;;50.33;26.42;;;2.10;99.90;;;;;;5053348;28;20029;-73
2023/11/26 03:44:04;;;;;;;46.45;25.20;;;2.10;99.90;;;;;;5052865;28;20067;-73
2023/11/26 03:46:32;;;;;;;47.47;25.75;;;2.10;99.90;;;;;;5053305;28;20116;-73
2023/11/26 03:48:59;;;;;;;43.05;23.25;;;2.10;99.90;;;;;;5052691;28;20139;-73
2023/11/26 03:51:24;;;;;;;44.88;26.08;;;2.00;99.90;;;;;;5053183;28;20521;-73
2023/11/26 03:53:50;;;;;;;52.15;27.85;;;2.10;99.90;;;;;;5052809;28;20021;-73
2023/11/26 03:56:15;;;;;;;56.25;29.20;;;2.20;99.90;;;;;;5053212;28;20103;-73
2023/11/26 03:58:41;;;;;;;60.42;31.02;;;2.30;99.90;;;;;;5052645;28;20043;-73
2023/11/26 04:01:08;;;;;;;57.63;28.20;;;2.40;99.90;;;;;;5052520;28;20036;-73
2023/11/26 04:03:33;;;;;;;62.55;30.95;;;2.50;99.90;;;;;;5052974;28;20021;-73
2023/11/26 04:06:00;;;;;;;65.10;31.95;;;2.50;99.90;;;;;;5052938;28;20032;-73
2023/11/26 04:08:27;;;;;;;65.82;32.33;;;2.50;99.90;;;;;;5052433;28;20029;-73
2023/11/26 04:10:53;;;;;;;66.97;33.92;;;2.60;99.90;;;;;;5052515;28;20390;-73
2023/11/26 04:13:18;;;;;;;69.35;34.95;;;2.70;99.90;;;;;;5052371;28;20017;-73
2023/11/26 04:15:46;;;;;;;78.53;37.13;;;2.80;99.90;;;;;;5052397;28;20025;-73
2023/11/26 04:18:12;;;;;;;75.05;35.78;;;2.90;99.90;;;;;;5052768;28;20028;-73
2023/11/26 04:20:38;;;;;;;80.13;37.78;;;2.90;99.90;;;;;;5052617;28;20494;-73
2023/11/26 04:23:04;;;;;;;71.20;37.88;;;2.90;99.90;;;;;;5052181;28;20028;-73
2023/11/26 04:25:29;;;;;;;73.90;38.13;;;3.00;99.90;;;;;;5052230;28;20067;-73
2023/11/26 04:27:55;;;;;;;82.10;38.10;;;3.00;99.90;;;;;;5052649;28;20037;-73
2023/11/26 04:30:21;;;;;;;73.28;37.03;;;3.00;99.90;;;;;;5052179;28;20037;-73
2023/11/26 04:32:47;;;;;;;77.60;38.00;;;3.00;99.90;;;;;;5052657;28;20041;-73
2023/11/26 04:35:13;;;;;;;76.80;36.50;;;3.00;99.90;;;;;;5052188;28;20546;-73
2023/11/26 04:37:38;;;;;;;83.43;37.17;;;3.00;99.90;;;;;;5052451;28;20364;-73
2023/11/26 04:40:06;;;;;;;76.32;38.50;;;3.00;99.90;;;;;;5052094;28;20032;-73
2023/11/26 04:42:33;;;;;;;74.90;37.35;;;3.00;99.90;;;;;;5052523;28;20025;-73
2023/11/26 04:44:58;;;;;;;79.20;38.95;;;3.10;99.90;;;;;;5052461;28;20060;-73
2023/11/26 04:47:24;;;;;;;75.70;38.58;;;3.10;99.90;;;;;;5052564;28;20068;-73
2023/11/26 04:49:49;;;;;;;84.20;37.95;;;3.10;99.90;;;;;;5052112;28;20025;-73
2023/11/26 04:52:15;;;;;;;81.25;38.78;;;3.10;99.90;;;;;;5052325;28;20025;-73
2023/11/26 04:54:40;;;;;;;83.57;37.80;;;3.10;99.90;;;;;;5052453;28;20029;-73
2023/11/26 04:57:06;;;;;;;83.68;38.55;;;3.20;99.90;;;;;;5052070;28;20021;-73
2023/11/26 04:59:32;;;;;;;82.88;38.95;;;3.20;99.90;;;;;;5052274;28;20140;-73
2023/11/26 05:01:58;;;;;;;87.50;38.55;;;3.20;99.90;;;;;;5052233;28;20056;-74
2023/11/26 05:04:24;;;;;;;83.85;38.25;;;3.20;99.90;;;;;;5052390;28;20032;-73
2023/11/26 05:06:50;;;;;;;82.20;38.38;;;3.20;99.90;;;;;;5052295;28;20033;-73
2023/11/26 05:09:16;;;;;;;88.88;39.53;;;3.20;99.90;;;;;;5051805;28;20474;-73
2023/11/26 05:11:43;;;;;;;83.72;40.33;;;3.20;99.90;;;;;;5052956;28;20116;-73
2023/11/26 05:14:09;;;;;;;78.90;39.38;;;3.30;99.90;;;;;;5055963;28;20029;-73
2023/11/26 05:16:35;;;;;;;86.35;39.83;;;3.30;99.90;;;;;;5055702;28;20047;-73
2023/11/26 05:19:01;;;;;;;89.70;38.72;;;3.30;99.90;;;;;;5055611;28;20534;-73
2023/11/26 05:21:27;;;;;;;88.63;38.78;;;3.20;99.90;;;;;;5056090;28;20117;-74
2023/11/26 05:23:54;;;;;;;88.32;38.13;;;3.30;99.90;;;;;;5055910;28;20024;-74
2023/11/26 05:26:20;;;;;;;88.75;40.42;;;3.30;99.90;;;;;;5055557;28;20395;-74
2023/11/26 05:28:45;;;;;;;88.32;41.47;;;3.20;99.90;;;;;;5055718;28;20045;-73
2023/11/26 05:31:11;;;;;;;83.75;39.45;;;3.30;99.90;;;;;;5055484;28;20025;-73
2023/11/26 05:33:37;;;;;;;91.57;40.33;;;3.30;99.90;;;;;;5055734;28;20032;-73
2023/11/26 05:36:05;;;;;;;81.93;39.08;;;3.20;99.90;;;;;;5055341;28;20025;-74
2023/11/26 05:38:31;;;;;;;87.45;38.83;;;3.30;99.90;;;;;;5055748;28;20033;-73
2023/11/26 05:40:56;;;;;;;81.63;39.83;;;3.20;99.90;;;;;;5055713;28;20036;-73
2023/11/26 05:43:22;;;;;;;86.40;39.05;;;3.30;99.90;;;;;;5055576;28;20449;-74
2023/11/26 05:45:48;;;;;;;80.93;37.50;;;3.30;99.90;;;;;;5055550;28;20017;-74
2023/11/26 05:48:13;;;;;;;79.55;40.42;;;3.20;99.90;;;;;;5055621;28;20067;-73
2023/11/26 05:50:39;;;;;;;83.15;38.33;;;3.30;99.90;;;;;;5055174;28;20037;-73
2023/11/26 05:53:05;;;;;;;79.93;36.60;;;3.30;99.90;;;;;;5055505;28;20079;-74
2023/11/26 05:55:30;;;;;;;72.10;37.67;;;3.30;99.90;;;;;;5055436;28;20116;-74
2023/11/26 05:57:56;;;;;;;83.22;38.15;;;3.30;99.90;;;;;;5055415;28;20389;-74
2023/11/26 06:00:22;;;;;;;74.13;37.38;;;3.20;99.90;;;;;;5055411;28;20039;-73
2023/11/26 06:02:50;;;;;;;73.15;37.10;;;3.30;99.90;;;;;;5055413;28;20438;-73
2023/11/26 06:05:16;;;;;;;73.90;36.35;;;3.20;99.90;;;;;;5055340;28;20458;-74
2023/11/26 06:07:42;;;;;;;87.57;36.78;;;3.20;99.90;;;;;;5054905;28;20025;-73
2023/11/26 06:10:09;;;;;;;81.45;37.35;;;3.30;99.90;;;;;;5055054;28;20120;-74
2023/11/26 06:12:35;;;;;;;76.60;36.47;;;3.30;99.90;;;;;;5055093;28;20017;-74
2023/11/26 06:15:02;;;;;;;75.35;36.78;;;3.30;99.90;;;;;;5055198;28;20025;-74
2023/11/26 06:17:27;;;;;;;81.75;36.22;;;3.30;99.90;;;;;;5055082;28;20385;-74
2023/11/26 06:19:53;;;;;;;72.72;36.03;;;3.40;99.90;;;;;;5054992;28;20112;-73
2023/11/26 06:22:18;;;;;;;80.43;35.55;;;3.50;99.90;;;;;;5054887;28;20063;-74
2023/11/26 06:24:45;;;;;;;77.75;35.78;;;3.50;99.90;;;;;;5054776;28;20561;-73
2023/11/26 06:27:11;;;;;;;79.50;36.22;;;3.50;99.90;;;;;;5054950;28;20033;-73
2023/11/26 06:29:37;;;;;;;85.57;36.72;;;3.60;99.90;;;;;;5054095;28;20045;-73
2023/11/26 06:32:04;;;;;;;82.47;37.20;;;3.60;99.90;;;;;;5054673;28;20024;-73
2023/11/26 06:34:30;;;;;;;83.85;35.63;;;3.60;99.90;;;;;;5054681;28;20036;-73
2023/11/26 06:36:55;;;;;;;86.90;36.22;;;3.60;99.90;;;;;;5054155;28;20478;-73
2023/11/26 06:39:23;;;;;;;76.00;36.03;;;3.70;99.90;;;;;;5054544;28;20071;-73
2023/11/26 06:41:49;;;;;;;91.78;35.75;;;3.70;99.90;;;;;;5054568;28;20513;-73
2023/11/26 06:44:14;;;;;;;87.78;35.67;;;3.70;99.90;;;;;;5054065;28;20025;-73
2023/11/26 06:46:40;;;;;;;85.28;35.65;;;3.70;99.90;;;;;;5054396;28;20037;-73
2023/11/26 06:49:06;;;;;;;78.85;34.20;;;3.70;99.90;;;;;;5054384;28;20442;-74
2023/11/26 06:51:32;;;;;;;82.03;34.08;;;3.70;99.90;;;;;;5053945;28;20028;-74
2023/11/26 06:53:57;;;;;;;78.43;33.63;;;3.70;99.90;;;;;;5054322;28;20040;-74
2023/11/26 06:56:23;;;;;;;80.50;36.85;;;3.70;99.90;;;;;;5054291;28;20032;-74
2023/11/26 06:58:49;;;;;;;93.07;34.65;;;3.80;99.90;;;;;;5054172;28;20063;-74
2023/11/26 07:01:15;;;;;;;81.88;36.83;;;3.80;99.90;;;;;;5054083;28;20025;-74
2023/11/26 07:03:42;;;;;;;84.65;37.00;;;3.80;99.90;;;;;;5054059;28;20033;-74
2023/11/26 07:06:09;;;;;;;96.30;36.53;;;3.80;99.90;;;;;;5054146;28;20056;-74
2023/11/26 07:08:37;;;;;;;84.45;37.47;;;3.80;99.90;;;;;;5053981;28;20037;-74
2023/11/26 07:11:04;;;;;;;82.57;36.33;;;3.80;99.90;;;;;;5053567;28;20514;-74
2023/11/26 07:13:30;;;;;;;92.90;38.40;;;3.80;99.90;;;;;;5054074;28;20119;-74
2023/11/26 07:15:55;;;;;;;85.35;38.72;;;3.80;99.90;;;;;;5053984;28;20111;-74
2023/11/26 07:18:21;;;;;;;88.70;39.20;;;3.80;99.90;;;;;;5053959;28;20455;-75
2023/11/26 07:20:47;;;;;;;90.63;40.72;;;3.90;99.90;;;;;;5053970;28;20120;-74
2023/11/26 07:23:13;;;;;;;94.78;40.28;;;3.90;99.90;;;;;;5053580;28;20471;-75
2023/11/26 07:25:39;;;;;;;95.63;40.85;;;3.90;99.90;;;;;;5053746;28;20024;-75
2023/11/26 07:28:08;;;;;;;85.43;38.72;;;3.90;99.90;;;;;;5053277;28;20129;-75
2023/11/26 07:30:36;;;;;;;92.47;39.33;;;3.90;99.90;;;;;;5053182;28;20098;-74
2023/11/26 07:33:01;;;;;;;87.00;37.03;;;3.90;99.90;;;;;;5053824;28;20040;-75
2023/11/26 07:35:27;;;;;;;101.18;39.10;;;3.90;99.90;;;;;;5053199;28;20024;-75
2023/11/26 07:37:52;;;;;;;90.10;39.03;;;3.90;99.90;;;;;;5053282;28;20029;-75
2023/11/26 07:40:18;;;;;;;103.40;39.40;;;4.00;99.90;;;;;;5053773;28;20068;-75
2023/11/26 07:42:44;;;;;;;88.97;37.30;;;4.00;99.90;;;;;;5052996;28;20021;-74
2023/11/26 07:45:11;;;;;;;88.03;38.50;;;4.00;99.90;;;;;;5053056;28;20074;-75
2023/11/26 07:47:38;;;;;;;95.13;38.65;;;4.00;99.90;;;;;;5053309;28;20064;-74
2023/11/26 07:50:08;;;;;;;90.93;38.58;;;4.00;99.90;;;;;;5053287;28;20028;-74
2023/11/26 07:52:34;;;;;;;96.32;39.03;;;4.00;99.90;;;;;;5053279;28;20336;-75
2023/11/26 07:55:04;;;;;;;93.38;38.75;;;4.00;99.90;;;;;;5053249;28;20463;-74
2023/11/26 07:57:31;;;;;;;93.35;39.25;;;4.00;99.90;;;;;;5053194;28;20036;-74
2023/11/26 07:59:58;;;;;;;86.25;39.05;;;4.10;99.90;;;;;;5053158;28;20063;-74
2023/11/26 08:02:24;;;;;;;98.85;38.92;;;4.10;99.90;;;;;;5053131;28;20505;-74
2023/11/26 08:04:53;;;;;;;85.32;37.92;;;4.10;99.90;;;;;;5052818;28;20025;-75
2023/11/26 08:07:23;;;;;;;84.18;37.10;;;4.10;99.90;;;;;;5053223;28;20055;-75
2023/11/26 08:09:50;;;;;;;97.07;37.70;;;4.20;99.90;;;;;;5052961;28;20056;-75
2023/11/26 08:12:18;;;;;;;85.32;37.05;;;4.20;99.90;;;;;;5052630;28;20028;-75
2023/11/26 08:14:44;;;;;;;87.78;35.92;;;4.20;99.90;;;;;;5052965;28;20059;-75
2023/11/26 08:17:09;;;;;;;82.63;37.28;;;4.20;99.90;;;;;;5052768;28;20088;-75
2023/11/26 08:19:36;;;;;;;80.40;35.47;;;4.30;99.90;;;;;;5052501;28;20036;-75
2023/11/26 08:22:01;;;;;;;80.78;34.85;;;4.20;99.90;;;;;;5052786;28;20356;-74
2023/11/26 08:24:29;;;;;;;91.78;36.53;;;4.30;99.90;;;;;;5052782;28;20113;-75
2023/11/26 08:26:54;;;;;;;77.70;35.47;;;4.30;99.90;;;;;;5052455;28;20048;-74
2023/11/26 08:29:21;;;;;;;77.68;35.10;;;4.30;99.90;;;;;;5052121;28;20048;-75
2023/11/26 08:31:48;;;;;;;80.82;35.05;;;4.30;99.90;;;;;;5052633;28;20049;-75
2023/11/26 08:34:15;;;;;;;80.75;34.05;;;4.30;99.90;;;;;;5052738;28;20028;-75
2023/11/26 08:36:42;;;;;;;66.30;32.47;;;4.40;99.90;;;;;;5052454;28;20340;-75
2023/11/26 08:39:14;;;;;;;71.38;33.25;;;4.30;99.90;;;;;;5052219;28;20471;-74
2023/11/26 08:41:42;;;;;;;80.78;32.60;;;4.30;99.90;;;;;;5052196;28;20025;-75
2023/11/26 08:44:09;;;;;;;76.80;31.83;;;4.40;99.90;;;;;;5052613;28;20159;-75
2023/11/26 08:46:36;;;;;;;79.30;32.47;;;4.40;99.90;;;;;;5054949;28;20029;-74
2023/11/26 08:49:03;;;;;;;74.00;32.42;;;4.40;99.90;;;;;;5056306;28;20025;-74
2023/11/26 08:51:32;;;;;;;70.07;31.63;;;4.40;99.90;;;;;;5056456;28;20110;-74
2023/11/26 08:53:59;;;;;;;70.05;31.27;;;4.50;99.90;;;;;;5056600;28;20017;-75
2023/11/26 08:56:25;;;;;;;71.03;31.27;;;4.50;99.90;;;;;;5056258;28;20497;-74
2023/11/26 08:58:51;;;;;;;64.78;29.65;;;4.50;99.90;;;;;;5056490;28;20363;-75
2023/11/26 09:01:17;;;;;;;62.55;29.30;;;4.60;99.90;;;;;;5056420;28;20029;-75
2023/11/26 09:03:43;;;;;;;64.10;31.05;;;4.50;99.90;;;;;;5056355;28;20075;-75
2023/11/26 09:06:09;;;;;;;64.25;30.45;;;4.50;99.90;;;;;;5056350;28;20029;-75
2023/11/26 09:08:35;;;;;;;72.70;29.85;;;4.60;99.90;;;;;;5056170;28;20125;-74
2023/11/26 09:11:00;;;;;;;64.45;30.77;;;4.50;99.90;;;;;;5055913;28;20057;-74
2023/11/26 09:13:29;;;;;;;64.13;28.73;;;4.60;99.90;;;;;;5056235;28;20017;-74
2023/11/26 09:15:55;;;;;;;64.38;30.88;;;4.60;99.90;;;;;;5056123;28;20060;-74
2023/11/26 09:18:21;;;;;;;64.05;31.13;;;4.60;99.90;;;;;;5055818;28;20479;-74
2023/11/26 09:20:48;;;;;;;70.95;32.22;;;4.60;99.90;;;;;;5055759;28;20035;-75
2023/11/26 09:23:14;;;;;;;74.05;33.38;;;4.70;99.90;;;;;;5055639;28;20051;-75
2023/11/26 09:25:39;;;;;;;66.20;32.08;;;4.70;99.90;;;;;;5055895;28;20162;-75
2023/11/26 09:28:05;;;;;;;71.45;33.63;;;4.70;99.90;;;;;;5055802;28;20071;-75
2023/11/26 09:30:31;;;;;;;70.07;33.13;;;4.90;99.90;;;;;;5055450;28;20052;-75
2023/11/26 09:32:57;;;;;;;58.75;31.73;;;4.80;99.90;;;;;;5055914;28;20147;-75
2023/11/26 09:35:22;;;;;;;68.43;32.85;;;4.90;99.90;;;;;;5055444;28;20061;-75
2023/11/26 09:37:48;;;;;;;64.57;30.58;;;5.00;99.90;;;;;;5055705;28;20021;-75
2023/11/26 09:40:13;;;;;;;63.55;30.90;;;5.10;99.90;;;;;;5055507;28;20082;-75
2023/11/26 09:42:44;;;;;;;59.90;32.35;;;5.30;99.90;;;;;;5055015;28;20039;-75
2023/11/26 09:45:10;;;;;;;63.85;29.80;;;5.40;99.90;;;;;;5055403;28;20037;-75
2023/11/26 09:47:35;;;;;;;61.13;30.33;;;5.40;99.90;;;;;;5055529;28;20033;-75
2023/11/26 09:50:02;;;;;;;65.30;32.53;;;5.30;99.90;;;;;;5055295;28;20025;-75
2023/11/26 09:52:29;;;;;;;67.05;32.75;;;5.20;99.90;;;;;;5054986;28;20022;-75
2023/11/26 09:54:56;;;;;;;63.40;31.23;;;5.20;99.90;;;;;;5055298;28;20031;-75
2023/11/26 09:57:22;;;;;;;64.68;31.23;;;5.00;99.90;;;;;;5054300;28;20021;-75
2023/11/26 09:59:48;;;;;;;72.70;34.25;;;5.00;99.90;;;;;;5055075;28;20033;-75
2023/11/26 10:02:13;;;;;;;68.95;34.17;;;5.00;99.90;;;;;;5055257;28;20044;-75
2023/11/26 10:04:48;;;;;;;68.13;34.63;;;5.00;99.90;;;;;;5055129;28;20029;-75
2023/11/26 10:07:15;;;;;;;65.40;34.17;;;5.00;99.90;;;;;;5054691;28;20431;-75
2023/11/26 10:09:40;;;;;;;68.63;34.20;;;5.10;99.90;;;;;;5055058;28;20036;-75
2023/11/26 10:12:06;;;;;;;71.22;35.45;;;5.20;99.90;;;;;;5055067;28;20478;-75
2023/11/26 10:14:32;;;;;;;70.70;35.13;;;5.20;99.90;;;;;;5054722;28;20021;-74
2023/11/26 10:17:12;;;;;;;59.30;32.90;;;5.10;99.90;;;;;;5054988;28;20120;-74
2023/11/26 10:19:39;;;;;;;66.90;33.90;;;5.20;99.90;;;;;;5054930;28;20033;-75
2023/11/26 10:22:06;;;;;;;65.18;33.35;;;5.30;99.90;;;;;;5054891;28;20482;-75
2023/11/26 10:24:32;;;;;;;63.97;33.35;;;5.40;99.90;;;;;;5054870;28;20093;-75
2023/11/26 10:26:59;;;;;;;64.03;34.20;;;5.40;99.90;;;;;;5054818;28;20494;-75
2023/11/26 10:29:29;;;;;;;67.00;33.30;;;5.50;99.90;;;;;;5054226;28;20041;-75
2023/11/26 10:32:03;;;;;;;62.38;32.58;;;5.50;99.90;;;;;;5054379;28;20513;-75
2023/11/26 10:34:30;;;;;;;66.43;33.38;;;5.50;99.90;;;;;;5054521;28;20031;-75
2023/11/26 10:36:56;;;;;;;64.00;32.53;;;5.50;99.90;;;;;;5054748;28;20492;-75
2023/11/26 10:39:22;;;;;;;63.90;33.30;;;5.60;99.90;;;;;;5054720;28;20036;-75
2023/11/26 10:41:49;;;;;;;62.42;33.20;;;6.00;99.90;;;;;;5054583;28;20037;-75
2023/11/26 10:44:16;;;;;;;58.58;28.88;;;6.40;99.90;;;;;;5054517;28;20485;-75
2023/11/26 10:46:44;;;;;;;43.35;25.65;;;6.70;99.90;;;;;;5054456;28;20078;-74
2023/11/26 10:49:22;;;;;;;42.15;24.23;;;7.00;99.90;;;;;;5054437;28;20068;-74
2023/11/26 10:52:14;;;;;;;38.40;21.98;;;7.60;99.90;;;;;;5054356;28;20052;-74
2023/11/26 10:55:07;;;;;;;37.42;21.83;;;7.40;99.90;;;;;;5054347;28;20025;-74
2023/11/26 10:57:39;;;;;;;40.97;22.85;;;7.20;99.90;;;;;;5053936;28;20045;-74
2023/11/26 11:00:09;;;;;;;49.25;25.00;;;6.90;99.90;;;;;;5053893;28;20028;-75
2023/11/26 11:02:36;;;;;;;44.35;23.98;;;6.50;99.90;;;;;;5053663;28;20082;-75
2023/11/26 11:05:04;;;;;;;40.83;23.95;;;6.50;99.90;;;;;;5053676;28;20044;-74
2023/11/26 11:07:30;;;;;;;38.03;24.13;;;6.30;99.90;;;;;;5054108;28;20087;-74
2023/11/26 11:10:24;;;;;;;49.60;26.08;;;6.20;99.90;;;;;;5052721;28;20442;-74
2023/11/26 11:15:28;;;;;;;43.60;25.90;;;6.00;99.90;;;;;;5110696;27;20434;-76
2023/11/26 11:17:54;;;;;;;45.22;26.30;;;5.90;99.90;;;;;;5110440;27;20032;-76
2023/11/26 11:20:19;;;;;;;46.70;27.02;;;5.90;99.90;;;;;;5110706;28;20031;-74
2023/11/26 11:22:46;;;;;;;54.78;27.55;;;5.90;99.90;;;;;;5110619;28;20056;-74
2023/11/26 11:25:15;;;;;;;52.00;26.45;;;6.00;99.90;;;;;;5110443;28;20111;-74
2023/11/26 11:30:37;;;;;;;48.70;26.20;;;6.00;99.90;;;;;;5172669;27;20437;-74
2023/11/26 11:33:08;;;;;;;41.80;25.92;;;6.00;99.90;;;;;;5172813;27;20417;-75
2023/11/26 11:38:15;;;;;;;44.97;25.27;;;6.00;99.90;;;;;;5069990;28;20908;-74
2023/11/26 11:41:08;;;;;;;44.65;26.17;;;6.00;99.90;;;;;;5070147;28;20036;-74
2023/11/26 11:43:35;;;;;;;41.53;24.75;;;6.00;99.90;;;;;;5069851;28;20040;-74
2023/11/26 11:49:05;;;;;;;43.67;24.70;;;6.20;99.90;;;;;;5110433;27;20893;-75
2023/11/26 11:51:38;;;;;;;37.10;23.25;;;6.10;99.90;;;;;;5110705;28;20035;-75
2023/11/26 11:54:25;;;;;;;39.37;24.90;;;6.20;99.90;;;;;;5110611;28;20398;-76
2023/11/26 11:56:58;;;;;;;38.45;23.08;;;6.50;99.90;;;;;;5110188;28;20023;-75
2023/11/26 11:59:24;;;;;;;37.30;21.75;;;6.60;99.90;;;;;;5110178;28;20493;-75
2023/11/26 12:01:51;;;;;;;34.30;21.20;;;6.90;99.90;;;;;;5110452;28;20103;-75
2023/11/26 12:04:17;;;;;;;38.75;21.23;;;7.10;99.90;;;;;;5109985;28;20421;-76
2023/11/26 12:06:49;;;;;;;25.55;16.45;;;7.30;99.90;;;;;;5110150;28;20031;-75
2023/11/26 12:09:14;;;;;;;26.13;15.55;;;7.20;99.90;;;;;;5110234;28;20466;-76
2023/11/26 12:11:43;;;;;;;24.42;15.13;;;7.10;99.90;;;;;;5110253;28;20024;-76
2023/11/26 12:14:09;;;;;;;28.00;16.38;;;7.10;99.90;;;;;;5110236;28;20031;-76
2023/11/26 12:16:35;;;;;;;26.10;15.48;;;7.10;99.90;;;;;;5110261;28;20139;-75
2023/11/26 12:19:02;;;;;;;27.85;15.65;;;7.00;99.90;;;;;;5110331;28;20123;-75
2023/11/26 12:21:28;;;;;;;29.65;14.65;;;7.00;99.90;;;;;;5110108;28;20036;-76
2023/11/26 12:23:54;;;;;;;24.42;14.27;;;7.00;99.90;;;;;;5110162;27;20023;-75
2023/11/26 12:26:20;;;;;;;25.25;14.68;;;6.90;99.90;;;;;;5110073;28;20530;-75
2023/11/26 12:28:47;;;;;;;27.13;14.40;;;7.00;99.90;;;;;;5109442;28;20028;-76
2023/11/26 12:31:14;;;;;;;23.67;14.57;;;7.10;99.90;;;;;;5109562;28;20026;-76
2023/11/26 12:33:44;;;;;;;27.02;14.02;;;7.00;99.90;;;;;;5109933;27;20084;-76
2023/11/26 12:36:13;;;;;;;25.88;13.05;;;7.00;99.90;;;;;;5109902;28;20441;-76
2023/11/26 12:38:40;;;;;;;26.67;13.40;;;7.00;99.90;;;;;;5109868;28;20370;-75
2023/11/26 12:41:10;;;;;;;30.10;13.75;;;7.00;99.90;;;;;;5109834;28;20028;-75
2023/11/26 12:43:37;;;;;;;23.67;13.52;;;7.00;99.90;;;;;;5109705;28;20028;-75
2023/11/26 12:46:12;;;;;;;25.75;12.23;;;6.90;99.90;;;;;;5109600;28;20127;-74
2023/11/26 12:48:40;;;;;;;26.90;13.50;;;6.90;99.90;;;;;;5109049;28;20564;-74